Time;durP1;ratioP1;P1;durP2;ratioP2;P2;SDS_P1;SDS_P2;PMS_P1;PMS_P2;Temp;Humidity;BMP_temperature;BMP_pressure;BME280_temperature;BME280_humidity;BME280_pressure;Samples;Min_cycle;Max_cycle;Signal;HPM_P1;HPM_P2
2023/10/16 00:01:46;;;;;;;4.03;1.83;;;;;;;7.33;100.00;102457.75;5006123;28;20038;-75
2023/10/16 00:04:13;;;;;;;5.47;2.03;;;;;;;7.34;100.00;102456.00;5012787;28;20107;-75
2023/10/16 00:06:38;;;;;;;5.25;1.92;;;;;;;7.37;100.00;102467.28;5013966;28;20057;-74
2023/10/16 00:09:14;;;;;;;4.45;2.30;;;;;;;7.43;100.00;102469.00;5014436;28;20033;-75
2023/10/16 00:11:39;;;;;;;2.65;2.15;;;;;;;7.49;100.00;102467.28;5011507;28;20435;-75
2023/10/16 00:14:19;;;;;;;3.78;1.85;;;;;;;7.55;100.00;102462.91;5014427;28;20030;-75
2023/10/16 00:16:45;;;;;;;1.95;1.70;;;;;;;7.58;100.00;102458.53;5012576;28;20068;-75
2023/10/16 00:19:11;;;;;;;3.08;1.67;;;;;;;7.61;100.00;102455.06;5014368;28;20232;-75
2023/10/16 00:21:43;;;;;;;2.42;1.77;;;;;;;7.63;100.00;102441.16;5013568;28;20238;-75
2023/10/16 00:24:09;;;;;;;3.35;1.45;;;;;;;7.67;100.00;102442.00;5014449;28;20041;-75
2023/10/16 00:26:35;;;;;;;4.68;1.80;;;;;;;7.65;100.00;102455.06;5012326;28;20213;-75
2023/10/16 00:29:07;;;;;;;2.20;1.52;;;;;;;7.66;100.00;102454.19;5014171;28;20037;-75
2023/10/16 00:31:32;;;;;;;2.20;1.65;;;;;;;7.68;100.00;102447.22;5013541;28;20363;-75
2023/10/16 00:33:59;;;;;;;1.77;1.10;;;;;;;7.70;100.00;102449.84;5014024;28;20030;-75
2023/10/16 00:36:24;;;;;;;3.30;1.42;;;;;;;7.73;100.00;102454.16;5013384;28;20029;-75
2023/10/16 00:38:51;;;;;;;1.98;1.75;;;;;;;7.72;100.00;102450.69;5013862;28;20069;-75
2023/10/16 00:41:17;;;;;;;2.08;1.65;;;;;;;7.75;100.00;102455.03;5013650;28;20034;-75
2023/10/16 00:43:45;;;;;;;2.60;1.60;;;;;;;7.75;100.00;102448.09;5014460;28;20048;-75
2023/10/16 00:46:27;;;;;;;3.58;1.58;;;;;;;7.75;100.00;102441.97;5014695;28;20236;-75
2023/10/16 00:48:53;;;;;;;3.72;1.52;;;;;;;7.75;100.00;102442.88;4995347;28;20396;-75
2023/10/16 00:51:21;;;;;;;4.07;1.58;;;;;;;7.74;100.00;102442.88;4995259;28;20030;-75
2023/10/16 00:53:46;;;;;;;2.43;1.57;;;;;;;7.73;100.00;102446.34;5012976;28;20339;-75
2023/10/16 00:56:14;;;;;;;3.17;1.33;;;;;;;7.74;100.00;102435.91;5014253;28;20289;-75
2023/10/16 00:58:42;;;;;;;2.08;1.48;;;;;;;7.75;100.00;102434.16;5014283;28;20041;-75
2023/10/16 01:01:12;;;;;;;2.90;1.20;;;;;;;7.75;100.00;102434.16;5014607;28;20036;-75
2023/10/16 01:03:40;;;;;;;3.90;1.52;;;;;;;7.74;100.00;102429.84;5013925;28;20053;-75
2023/10/16 01:06:15;;;;;;;4.03;1.70;;;;;;;7.72;100.00;102429.84;4969852;28;1296144;-75
2023/10/16 01:08:49;;;;;;;3.90;1.40;;;;;;;7.71;100.00;102429.84;5014616;28;20053;-75
2023/10/16 01:11:18;;;;;;;2.72;1.50;;;;;;;7.70;100.00;102423.75;5015189;28;20043;-75
2023/10/16 01:13:53;;;;;;;2.88;1.15;;;;;;;7.69;100.00;102422.91;5014833;28;20048;-75
2023/10/16 01:16:19;;;;;;;1.10;1.00;;;;;;;7.67;100.00;102419.41;5015437;28;20311;-75
2023/10/16 01:18:45;;;;;;;2.33;1.58;;;;;;;7.65;100.00;102420.28;5015084;28;20056;-75
2023/10/16 01:21:14;;;;;;;3.42;1.48;;;;;;;7.64;100.00;102426.38;5015069;28;20336;-75
2023/10/16 01:23:41;;;;;;;1.67;1.50;;;;;;;7.61;100.00;102424.66;5014560;28;20109;-75
2023/10/16 01:26:08;;;;;;;1.48;1.15;;;;;;;7.57;100.00;102420.31;5014818;28;20064;-75
2023/10/16 01:28:33;;;;;;;4.68;1.70;;;;;;;7.54;100.00;102416.84;5013348;28;20329;-75
2023/10/16 01:31:00;;;;;;;1.83;1.20;;;;;;;7.50;100.00;102411.63;5015224;28;20064;-75
2023/10/16 01:33:26;;;;;;;2.05;1.52;;;;;;;7.44;100.00;102411.66;5015008;28;20286;-75
2023/10/16 01:35:51;;;;;;;2.63;1.40;;;;;;;7.42;100.00;102412.53;5015285;28;20030;-75
2023/10/16 01:38:20;;;;;;;1.50;1.40;;;;;;;7.40;100.00;102415.13;5013779;28;20237;-75
2023/10/16 01:41:05;;;;;;;1.98;1.40;;;;;;;7.40;100.00;102411.66;5014240;28;20034;-75
2023/10/16 01:43:35;;;;;;;1.55;1.30;;;;;;;7.37;100.00;102412.56;5014303;28;20061;-75
2023/10/16 01:46:04;;;;;;;2.63;1.20;;;;;;;7.37;100.00;102409.94;5015104;28;20044;-75
2023/10/16 01:48:29;;;;;;;1.20;1.10;;;;;;;7.38;100.00;102400.38;5013547;28;20076;-75
2023/10/16 01:50:55;;;;;;;1.60;1.30;;;;;;;7.35;100.00;102410.81;5014936;28;20038;-75
2023/10/16 01:53:25;;;;;;;1.40;1.30;;;;;;;7.34;100.00;102412.56;5014477;28;20036;-75
2023/10/16 01:55:54;;;;;;;1.45;1.15;;;;;;;7.33;100.00;102415.16;4995062;28;20028;-75
2023/10/16 01:58:26;;;;;;;2.20;1.30;;;;;;;7.32;100.00;102406.47;5007252;28;20105;-75
2023/10/16 02:00:55;;;;;;;2.35;1.20;;;;;;;7.30;100.00;102403.88;5014393;28;20046;-75
2023/10/16 02:03:22;;;;;;;1.30;1.20;;;;;;;7.29;100.00;102404.75;5015003;28;20045;-75
2023/10/16 02:05:48;;;;;;;1.40;1.20;;;;;;;7.27;100.00;102409.06;5014047;28;20033;-75
2023/10/16 02:08:14;;;;;;;1.40;1.30;;;;;;;7.27;100.00;102403.00;5014546;28;20068;-75
2023/10/16 02:10:41;;;;;;;1.55;1.30;;;;;;;7.25;100.00;102407.34;5013571;28;20049;-75
2023/10/16 02:13:08;;;;;;;1.75;1.10;;;;;;;7.26;100.00;102409.09;5014762;28;20323;-75
2023/10/16 02:15:36;;;;;;;2.67;1.30;;;;;;;7.24;100.00;102401.28;5014001;28;20040;-75
2023/10/16 02:18:06;;;;;;;1.67;1.20;;;;;;;7.23;100.00;102407.34;5014590;28;20046;-75
2023/10/16 02:20:36;;;;;;;2.38;1.38;;;;;;;7.20;100.00;102393.47;5013611;28;20109;-74
2023/10/16 02:23:02;;;;;;;2.15;1.20;;;;;;;7.20;100.00;102394.31;5014797;28;20034;-75
2023/10/16 02:25:28;;;;;;;2.67;1.02;;;;;;;7.17;100.00;102394.34;5013855;28;20092;-75
2023/10/16 02:27:54;;;;;;;1.08;1.08;;;;;;;7.15;100.00;102397.81;5014505;28;20040;-75
2023/10/16 02:32:53;;;;;;;2.40;1.20;;;;;;;7.09;100.00;102388.25;5014194;28;20037;-75
2023/10/16 02:35:21;;;;;;;1.85;1.40;;;;;;;7.08;100.00;102394.38;5014296;28;20038;-75
2023/10/16 02:37:53;;;;;;;1.67;1.50;;;;;;;7.06;100.00;102390.91;5014262;28;20401;-76
2023/10/16 02:40:20;;;;;;;1.55;1.42;;;;;;;7.06;100.00;102389.16;5013899;28;20034;-75
2023/10/16 02:42:55;;;;;;;1.17;1.08;;;;;;;7.06;100.00;102390.91;5012901;28;20046;-75
2023/10/16 02:45:24;;;;;;;1.55;1.27;;;;;;;7.05;100.00;102387.41;5014088;28;20038;-75
2023/10/16 02:47:51;;;;;;;0.98;0.93;;;;;;;7.09;100.00;102393.47;5014237;28;20029;-75
2023/10/16 02:50:18;;;;;;;1.20;1.10;;;;;;;7.14;100.00;102386.53;5015502;28;20416;-76
2023/10/16 02:52:45;;;;;;;1.00;1.00;;;;;;;7.16;100.00;102382.19;5017065;28;20387;-76
2023/10/16 02:55:11;;;;;;;1.30;1.10;;;;;;;7.16;100.00;102382.19;5016078;28;20037;-76
2023/10/16 02:57:40;;;;;;;1.63;1.00;;;;;;;7.16;100.00;102384.78;5016875;28;20364;-76
2023/10/16 03:00:08;;;;;;;1.98;1.00;;;;;;;7.19;100.00;102379.56;5017844;28;20138;-76
2023/10/16 03:02:34;;;;;;;1.70;0.80;;;;;;;7.25;100.00;102374.34;5016444;28;20033;-76
2023/10/16 03:05:33;;;;;;;2.70;1.38;;;;;;;7.26;100.00;102377.84;5017882;28;20057;-76
2023/10/16 03:07:52;;;;;;;3.42;1.10;;;;;;;7.24;100.00;102367.41;5012966;28;20062;-76
2023/10/16 03:10:20;;;;;;;2.03;0.90;;;;;;;7.25;100.00;102361.31;5017528;28;20064;-76
2023/10/16 03:12:49;;;;;;;1.00;0.90;;;;;;;7.25;100.00;102361.31;5016553;28;20236;-75
2023/10/16 03:15:17;;;;;;;2.10;1.00;;;;;;;7.26;100.00;102362.19;5017529;28;20275;-75
2023/10/16 03:17:43;;;;;;;1.30;1.00;;;;;;;7.27;100.00;102364.78;5016884;28;20105;-76
2023/10/16 03:20:19;;;;;;;2.03;1.10;;;;;;;7.28;100.00;102371.72;5017391;28;20041;-76
2023/10/16 03:22:46;;;;;;;0.82;0.80;;;;;;;7.29;100.00;102367.38;5016615;28;20041;-76
2023/10/16 03:25:24;;;;;;;0.80;0.80;;;;;;;7.30;100.00;102363.91;5017171;28;20340;-76
2023/10/16 03:27:50;;;;;;;1.92;0.85;;;;;;;7.28;100.00;102369.13;5014933;28;20056;-76
2023/10/16 03:30:17;;;;;;;7.25;1.60;;;;;;;7.26;100.00;102364.81;5017437;28;20038;-75
2023/10/16 03:32:42;;;;;;;1.27;1.17;;;;;;;7.25;100.00;102363.06;5014654;28;20043;-75
2023/10/16 03:35:09;;;;;;;1.80;0.80;;;;;;;7.27;100.00;102369.97;5017278;28;20053;-76
2023/10/16 03:37:35;;;;;;;1.27;1.17;;;;;;;7.26;100.00;102365.66;5015948;28;20351;-76
2023/10/16 03:40:11;;;;;;;0.85;0.73;;;;;;;7.24;100.00;102370.00;5016921;28;20042;-76
2023/10/16 03:42:40;;;;;;;1.15;1.05;;;;;;;7.25;100.00;102361.31;5015919;28;20048;-75
2023/10/16 03:45:06;;;;;;;1.42;0.90;;;;;;;7.26;100.00;102357.84;5016858;28;20042;-75
2023/10/16 03:47:33;;;;;;;1.33;1.00;;;;;;;7.29;100.00;102354.34;5015976;28;20088;-75
2023/10/16 03:49:59;;;;;;;1.30;1.00;;;;;;;7.28;100.00;102363.06;5017270;28;20289;-75
2023/10/16 03:52:26;;;;;;;1.48;0.93;;;;;;;7.26;100.00;102373.47;5016520;28;20038;-76
2023/10/16 03:54:53;;;;;;;2.65;1.30;;;;;;;7.26;100.00;102362.19;5016643;28;20039;-75
2023/10/16 03:57:20;;;;;;;2.47;1.20;;;;;;;7.28;100.00;102366.53;5016701;28;20230;-75
2023/10/16 03:59:47;;;;;;;1.73;1.00;;;;;;;7.34;100.00;102367.38;5015295;28;20371;-75
2023/10/16 04:02:19;;;;;;;0.90;0.80;;;;;;;7.38;100.00;102362.13;5015777;28;20053;-75
2023/10/16 04:04:46;;;;;;;1.38;1.27;;;;;;;7.37;100.00;102363.03;5015945;28;20406;-75
2023/10/16 04:07:14;;;;;;;2.22;0.98;;;;;;;7.38;100.00;102358.69;5016487;28;20054;-75
2023/10/16 04:09:49;;;;;;;3.97;1.30;;;;;;;7.37;100.00;102357.81;5016034;28;20053;-75
2023/10/16 04:12:17;;;;;;;0.80;0.80;;;;;;;7.38;100.00;102361.28;5016204;28;20418;-75
2023/10/16 04:14:50;;;;;;;1.25;0.98;;;;;;;7.40;100.00;102357.78;5015896;28;20034;-75
2023/10/16 04:17:15;;;;;;;1.60;1.25;;;;;;;7.44;100.00;102358.66;5016109;28;20037;-75
2023/10/16 04:19:53;;;;;;;0.73;0.70;;;;;;;7.47;100.00;102349.06;5015247;28;20280;-75
2023/10/16 04:22:24;;;;;;;1.70;0.80;;;;;;;7.49;100.00;102346.47;5016336;28;20125;-75
2023/10/16 04:24:54;;;;;;;1.48;0.80;;;;;;;7.49;100.00;102349.06;5015329;28;20056;-75
2023/10/16 04:29:46;;;;;;;0.93;0.88;;;;;;;7.50;100.00;102346.47;5015614;28;20092;-76
2023/10/16 04:34:52;;;;;;;2.10;0.95;;;;;;;7.50;100.00;102343.00;5015147;28;20506;-76
2023/10/16 04:37:36;;;;;;;1.90;0.80;;;;;;;7.53;100.00;102344.72;5016161;28;20061;-76
2023/10/16 04:50:29;;;;;;;0.82;0.70;;;;;;;7.51;100.00;102329.06;5015443;28;20037;-76
2023/10/16 05:11:36;;;;;;;1.98;1.10;;;;;;;7.49;100.00;102318.69;5014918;28;20038;-76
2023/10/16 05:16:48;;;;;;;2.20;1.20;;;;;;;7.53;100.00;102321.25;5014439;28;20037;-76
2023/10/16 06:16:17;;;;;;;1.70;1.10;;;;;;;7.95;100.00;102332.34;5012120;28;20036;-76
2023/10/16 06:18:44;;;;;;;1.15;1.05;;;;;;;7.97;100.00;102328.88;5011808;28;20029;-76
2023/10/16 06:21:09;;;;;;;1.30;1.00;;;;;;;8.00;100.00;102327.97;5012505;28;20061;-76
2023/10/16 06:23:42;;;;;;;1.08;0.90;;;;;;;8.02;100.00;102327.09;5010461;28;20029;-76
2023/10/16 06:26:08;;;;;;;0.95;0.80;;;;;;;8.06;100.00;102327.94;5015558;28;20069;-76
2023/10/16 06:28:34;;;;;;;0.82;0.68;;;;;;;8.09;100.00;102335.72;5015665;28;20044;-76
2023/10/16 06:30:59;;;;;;;2.47;1.17;;;;;;;8.10;100.00;102334.00;5016573;28;20034;-76
2023/10/16 06:33:25;;;;;;;1.65;0.93;;;;;;;8.11;100.00;102325.28;5016073;28;20240;-76
2023/10/16 06:35:52;;;;;;;1.08;0.90;;;;;;;8.13;100.00;102336.59;5015505;28;20041;-76
2023/10/16 06:38:20;;;;;;;1.23;1.00;;;;;;;8.14;100.00;102330.50;5016408;28;20355;-76
2023/10/16 06:40:46;;;;;;;1.73;1.13;;;;;;;8.15;100.00;102335.72;5015672;28;20088;-76
2023/10/16 06:43:13;;;;;;;1.08;1.00;;;;;;;8.17;100.00;102333.09;5016131;28;20037;-76
2023/10/16 06:45:53;;;;;;;1.02;0.93;;;;;;;8.17;100.00;102335.72;5015272;28;20091;-76
2023/10/16 06:48:19;;;;;;;1.85;0.98;;;;;;;8.20;100.00;102333.06;5015587;28;20063;-76
2023/10/16 06:50:54;;;;;;;1.23;1.08;;;;;;;8.21;100.00;102337.41;5015693;28;20117;-76
2023/10/16 06:53:23;;;;;;;1.00;1.00;;;;;;;8.23;100.00;102339.13;5015899;28;20240;-76
2023/10/16 06:55:50;;;;;;;;;;;;;;;8.25;100.00;102339.13;5015601;28;20030;-76
2023/10/16 06:58:18;;;;;;;2.13;1.30;;;;;;;8.27;100.00;102345.19;5015882;28;19980;-76
2023/10/16 07:00:47;;;;;;;1.48;1.00;;;;;;;8.27;100.00;102343.44;5014818;28;20344;-76
2023/10/16 07:03:12;;;;;;;;;;;;;;;8.29;100.00;102342.56;5016399;28;20033;-76
2023/10/16 07:05:44;;;;;;;3.88;1.40;;;;;;;8.30;100.00;102350.41;5015531;28;20188;-75
2023/10/16 07:08:10;;;;;;;4.57;1.88;;;;;;;8.29;100.00;102348.66;5015628;28;20054;-76
2023/10/16 07:10:41;;;;;;;2.97;1.13;;;;;;;8.33;100.00;102354.72;5015051;28;20096;-76
2023/10/16 07:13:08;;;;;;;1.52;1.17;;;;;;;8.35;100.00;102353.84;5015544;28;20107;-76
2023/10/16 07:15:34;;;;;;;1.00;1.00;;;;;;;8.38;100.00;102343.34;5014860;28;20041;-76
2023/10/16 07:18:05;;;;;;;1.52;1.20;;;;;;;8.41;100.00;102345.09;5015531;28;20041;-76
2023/10/16 07:20:52;;;;;;;1.30;1.20;;;;;;;8.45;100.00;102347.69;5015008;28;20045;-76
2023/10/16 07:23:20;;;;;;;1.67;1.00;;;;;;;8.48;100.00;102344.22;5015206;28;20037;-76
2023/10/16 07:25:57;;;;;;;1.50;1.40;;;;;;;8.51;100.00;102341.53;5014646;28;20045;-76
2023/10/16 07:28:23;;;;;;;6.18;2.30;;;;;;;8.53;100.00;102350.25;5013372;28;20041;-76
2023/10/16 07:30:49;;;;;;;8.93;2.45;;;;;;;8.56;100.00;102345.00;5002212;28;20045;-76
2023/10/16 07:33:15;;;;;;;4.57;2.10;;;;;;;8.61;100.00;102348.44;5009263;28;20038;-76
2023/10/16 07:35:47;;;;;;;5.93;1.98;;;;;;;8.67;100.00;102346.66;5012648;28;20358;-76
2023/10/16 07:38:19;;;;;;;3.38;1.77;;;;;;;8.69;100.00;102350.97;5014800;28;20277;-76
2023/10/16 07:40:51;;;;;;;3.65;1.50;;;;;;;8.70;100.00;102351.88;5014607;28;20044;-76
2023/10/16 07:43:28;;;;;;;2.38;1.73;;;;;;;8.71;100.00;102351.81;5010016;28;20233;-76
2023/10/16 07:46:07;;;;;;;3.05;2.10;;;;;;;8.74;100.00;102351.81;5010348;28;20084;-76
2023/10/16 07:48:33;;;;;;;1.63;1.52;;;;;;;8.75;100.00;102348.34;5008521;28;20149;-76
2023/10/16 07:51:01;;;;;;;4.18;1.77;;;;;;;8.76;100.00;102352.66;5005253;28;20348;-76
2023/10/16 07:53:28;;;;;;;2.97;1.75;;;;;;;8.80;100.00;102350.88;4994358;28;20395;-76
2023/10/16 07:55:55;;;;;;;3.58;2.33;;;;;;;8.82;100.00;102349.13;5009292;28;20076;-76
2023/10/16 07:58:23;;;;;;;2.08;1.88;;;;;;;8.86;100.00;102361.31;5014516;28;20218;-76
2023/10/16 08:03:37;;;;;;;4.32;1.80;;;;;;;8.93;100.00;102356.88;5013613;28;20194;-75
2023/10/16 08:06:06;;;;;;;4.15;2.50;;;;;;;8.95;100.00;102361.22;5013898;28;20344;-76
2023/10/16 08:08:38;;;;;;;2.22;1.50;;;;;;;8.99;100.00;102360.28;5013650;28;20367;-76
2023/10/16 08:11:18;;;;;;;2.72;1.67;;;;;;;9.04;100.00;102362.88;5013841;28;20375;-76
2023/10/16 08:13:48;;;;;;;3.05;2.08;;;;;;;9.06;100.00;102362.84;5013158;28;20097;-76
2023/10/16 08:16:21;;;;;;;2.13;1.75;;;;;;;9.11;100.00;102351.44;5002992;28;20039;-76
2023/10/16 08:18:51;;;;;;;4.47;1.70;;;;;;;9.16;100.00;102354.03;5012965;28;20080;-76
2023/10/16 08:21:24;;;;;;;2.53;2.33;;;;;;;9.19;100.00;102356.63;5013777;28;20049;-76
2023/10/16 08:23:57;;;;;;;5.45;2.58;;;;;;;9.25;100.00;102355.69;5003987;28;20045;-75
2023/10/16 08:26:29;;;;;;;1.70;1.52;;;;;;;9.28;100.00;102355.63;5003942;28;20365;-75
2023/10/16 08:34:51;;;;;;;2.22;1.65;;;;;;;9.34;100.00;102353.81;4979619;28;20132;-75
2023/10/16 08:37:17;;;;;;;2.03;1.70;;;;;;;9.36;100.00;102351.19;4999255;28;20238;-75
2023/10/16 08:39:48;;;;;;;3.55;1.90;;;;;;;9.38;100.00;102350.28;4998636;28;20041;-75
2023/10/16 08:42:19;;;;;;;1.70;1.60;;;;;;;9.41;100.00;102362.47;5009229;28;20340;-75
2023/10/16 08:45:14;;;;;;;2.28;1.83;;;;;;;9.44;100.00;102354.59;5010509;28;20104;-75
2023/10/16 08:47:42;;;;;;;1.63;1.50;;;;;;;9.46;100.00;102352.81;5009592;28;20277;-75
2023/10/16 08:50:17;;;;;;;1.88;1.75;;;;;;;9.49;100.00;102351.91;5009765;28;20033;-75
2023/10/16 08:52:51;;;;;;;2.10;1.90;;;;;;;9.51;100.00;102355.38;5007331;28;20083;-75
2023/10/16 08:55:16;;;;;;;2.50;1.70;;;;;;;9.54;100.00;102355.34;4995716;28;20108;-75
2023/10/16 08:57:45;;;;;;;2.10;1.60;;;;;;;9.56;100.00;102358.81;5008908;28;20316;-75
2023/10/16 09:00:19;;;;;;;3.30;2.53;;;;;;;9.58;100.00;102354.41;5009082;28;20030;-75
2023/10/16 09:02:49;;;;;;;5.88;2.28;;;;;;;9.61;100.00;102359.63;5000184;28;20460;-75
2023/10/16 09:05:16;;;;;;;3.28;2.88;;;;;;;9.62;100.00;102356.09;5004175;28;20041;-75
2023/10/16 09:07:41;;;;;;;2.88;2.67;;;;;;;9.65;100.00;102353.47;4992111;28;20057;-75
2023/10/16 09:10:09;;;;;;;2.90;2.65;;;;;;;9.67;100.00;102356.06;4999583;28;20029;-75
2023/10/16 09:12:44;;;;;;;3.30;3.00;;;;;;;9.71;100.00;102355.13;4995792;28;20364;-75
2023/10/16 09:15:12;;;;;;;3.88;2.58;;;;;;;9.74;100.00;102360.31;5006752;28;20036;-75
2023/10/16 09:17:38;;;;;;;2.78;2.58;;;;;;;9.77;100.00;102361.16;5010946;28;20131;-75
2023/10/16 09:20:33;;;;;;;8.73;3.65;;;;;;;9.78;100.00;102347.16;5005313;28;20025;-75
2023/10/16 09:22:54;;;;;;;7.13;3.22;;;;;;;9.83;100.00;102354.13;5009548;28;20042;-75
2023/10/16 09:25:23;;;;;;;4.38;3.20;;;;;;;9.87;100.00;102355.78;5004906;28;20042;-75
2023/10/16 09:27:49;;;;;;;5.93;3.70;;;;;;;9.90;100.00;102358.38;5011399;28;20033;-75
2023/10/16 09:30:14;;;;;;;5.53;2.80;;;;;;;9.91;100.00;102349.63;5004676;28;20096;-75
2023/10/16 09:32:41;;;;;;;6.88;2.60;;;;;;;9.96;100.00;102353.91;5004633;28;20325;-75
2023/10/16 09:35:12;;;;;;;6.10;3.30;;;;;;;9.99;100.00;102351.25;5006016;28;20042;-75
2023/10/16 09:37:37;;;;;;;5.13;3.10;;;;;;;10.03;100.00;102349.47;5010046;28;20041;-75
2023/10/16 09:42:56;;;;;;;3.85;2.65;;;;;;;10.09;100.00;102344.13;5007273;28;20041;-75
2023/10/16 09:45:25;;;;;;;4.63;2.75;;;;;;;10.12;100.00;102336.25;5005790;28;20369;-75
2023/10/16 09:47:55;;;;;;;;;;;;;;;10.15;100.00;102337.94;5012445;28;20474;-75
2023/10/16 09:50:23;;;;;;;4.55;2.30;;;;;;;10.19;100.00;102339.63;5005050;28;19925;-75
2023/10/16 09:52:49;;;;;;;3.40;2.30;;;;;;;10.19;100.00;102343.13;5006121;28;20366;-75
2023/10/16 09:55:18;;;;;;;3.78;1.52;;;;;;;10.21;100.00;102337.00;5007123;28;20046;-75
2023/10/16 09:57:54;;;;;;;1.80;1.40;;;;;;;10.24;100.00;102339.56;5011635;28;20122;-75
2023/10/16 10:00:28;;;;;;;1.52;1.10;;;;;;;10.23;100.00;102340.47;5008306;28;20034;-75
2023/10/16 10:03:11;;;;;;;4.15;1.05;;;;;;;10.25;100.00;102338.69;5013102;28;20376;-75
2023/10/16 10:05:55;;;;;;;1.75;1.20;;;;;;;10.29;100.00;102340.34;5011122;28;20317;-75
2023/10/16 10:11:57;;;;;;;2.50;0.73;;;;;;;10.32;100.00;102333.34;4992823;28;20034;-75
2023/10/16 10:14:29;;;;;;;1.40;0.75;;;;;;;10.32;100.00;102335.09;4993722;28;20053;-75
2023/10/16 10:16:58;;;;;;;2.35;0.60;;;;;;;10.33;100.00;102342.94;5007796;28;20054;-75
2023/10/16 10:19:31;;;;;;;4.72;0.90;;;;;;;10.39;100.00;102336.75;5015877;28;20033;-74
2023/10/16 10:22:03;;;;;;;1.65;0.73;;;;;;;10.44;100.00;102340.16;5011621;28;20041;-74
2023/10/16 10:24:30;;;;;;;3.38;1.13;;;;;;;10.44;100.00;102336.66;5014448;28;20038;-75
2023/10/16 10:26:59;;;;;;;1.95;1.02;;;;;;;10.48;100.00;102333.97;5001152;28;20072;-74
2023/10/16 10:29:25;;;;;;;1.70;0.68;;;;;;;10.54;100.00;102338.25;5007812;28;20156;-74
2023/10/16 10:31:51;;;;;;;1.35;0.60;;;;;;;10.55;100.00;102343.47;5008318;28;20049;-74
2023/10/16 10:34:27;;;;;;;4.55;0.90;;;;;;;10.62;100.00;102338.97;5010670;28;20209;-74
2023/10/16 10:36:53;;;;;;;2.85;0.70;;;;;;;10.64;100.00;102339.84;5002026;28;20144;-74
2023/10/16 10:39:21;;;;;;;2.20;0.73;;;;;;;10.65;100.00;102338.06;5011505;28;20034;-74
2023/10/16 10:42:03;;;;;;;0.80;0.77;;;;;;;10.65;100.00;102336.31;5005532;28;20104;-74
2023/10/16 10:44:44;;;;;;;2.97;0.68;;;;;;;10.73;100.00;102331.81;5011004;28;20036;-74
2023/10/16 10:47:30;;;;;;;1.60;0.70;;;;;;;10.78;100.00;102336.09;5004975;28;20037;-74
2023/10/16 10:50:00;;;;;;;1.10;0.60;;;;;;;10.76;100.00;102336.97;5001878;28;20049;-74
2023/10/16 10:52:30;;;;;;;0.70;0.50;;;;;;;10.78;100.00;102333.47;5009845;28;20334;-74
2023/10/16 10:55:14;;;;;;;0.57;0.57;;;;;;;10.77;100.00;102330.00;5009749;28;20321;-74
2023/10/16 10:57:47;;;;;;;1.98;0.70;;;;;;;10.78;100.00;102326.47;5011169;28;20026;-74
2023/10/16 11:03:08;;;;;;;0.93;0.63;;;;;;;10.83;100.00;102322.00;5012140;28;20030;-74
2023/10/16 11:05:34;;;;;;;6.65;0.85;;;;;;;10.87;100.00;102331.53;5007944;28;20435;-74
2023/10/16 11:10:42;;;;;;;0.82;0.60;;;;;;;10.97;99.80;102326.13;5008280;28;20105;-74
2023/10/16 11:13:09;;;;;;;1.55;0.47;;;;;;;11.03;98.97;102319.03;4994187;28;20030;-74
2023/10/16 11:15:35;;;;;;;0.73;0.50;;;;;;;11.07;97.65;102318.06;4992758;28;20088;-74
2023/10/16 11:18:18;;;;;;;1.98;0.50;;;;;;;11.06;97.52;102311.09;5004307;28;20049;-74
2023/10/16 11:20:45;;;;;;;1.02;0.60;;;;;;;11.14;98.03;102313.56;5008279;28;20042;-74
2023/10/16 11:23:15;;;;;;;1.70;0.63;;;;;;;11.22;96.76;102316.03;4994447;28;20041;-74
2023/10/16 11:25:46;;;;;;;0.65;0.40;;;;;;;11.20;96.14;102308.19;5000272;28;20318;-74
2023/10/16 11:28:17;;;;;;;1.30;0.57;;;;;;;11.20;96.32;102308.19;4994541;28;20030;-74
2023/10/16 11:30:44;;;;;;;2.95;0.80;;;;;;;11.25;96.64;102313.38;4994524;28;20051;-74
2023/10/16 11:33:12;;;;;;;1.13;0.55;;;;;;;11.26;96.89;102299.34;5006542;28;20534;-74
2023/10/16 11:35:42;;;;;;;3.00;0.73;;;;;;;11.25;95.50;102301.09;5012988;28;20068;-74
2023/10/16 11:38:28;;;;;;;2.45;0.70;;;;;;;11.25;95.47;102292.38;5014170;28;20045;-74
2023/10/16 11:40:55;;;;;;;2.03;0.60;;;;;;;11.31;96.34;102294.88;5013851;28;20033;-74
2023/10/16 11:43:21;;;;;;;1.65;0.68;;;;;;;11.33;94.31;102291.34;5012189;28;20069;-74
2023/10/16 11:45:53;;;;;;;1.83;0.60;;;;;;;11.36;93.33;102289.53;5012879;28;20041;-74
2023/10/16 11:50:51;;;;;;;;;;;;;;;11.40;92.42;102280.72;5000077;28;20042;-74
2023/10/16 11:53:28;;;;;;;;;;;;;;;11.39;91.80;102276.34;5008070;28;19917;-74
2023/10/16 11:55:54;;;;;;;1.50;0.60;;;;;;;11.37;92.49;102267.66;5005484;28;20161;-74
2023/10/16 11:58:19;;;;;;;0.45;0.40;;;;;;;11.39;93.75;102268.47;5000712;28;20046;-74
2023/10/16 12:00:54;;;;;;;2.95;0.80;;;;;;;11.45;92.30;102274.47;5002369;28;20422;-74
2023/10/16 12:03:26;;;;;;;0.82;0.47;;;;;;;11.52;91.00;102270.81;4993268;28;20034;-74
2023/10/16 12:05:52;;;;;;;1.45;0.50;;;;;;;11.56;89.09;102274.22;4998715;28;20352;-74
2023/10/16 12:08:21;;;;;;;2.38;0.90;;;;;;;11.58;88.40;102267.19;5002903;28;20333;-74
2023/10/16 12:10:47;;;;;;;0.90;0.60;;;;;;;11.53;88.84;102259.44;4992544;28;20307;-74
2023/10/16 12:13:13;;;;;;;4.25;0.70;;;;;;;11.53;88.79;102262.06;4991462;28;20042;-74
2023/10/16 12:15:40;;;;;;;0.82;0.63;;;;;;;11.59;88.71;102258.44;4992461;28;20352;-74
2023/10/16 12:18:09;;;;;;;1.85;0.60;;;;;;;11.58;86.68;102259.31;4993911;28;20285;-74
2023/10/16 12:20:37;;;;;;;1.50;0.40;;;;;;;11.57;87.60;102261.97;5011712;28;20184;-74
2023/10/16 12:23:03;;;;;;;4.75;0.60;;;;;;;11.58;88.18;102258.47;4993442;28;20116;-74
2023/10/16 12:25:29;;;;;;;4.90;0.80;;;;;;;11.63;88.70;102251.34;4992850;28;20042;-74
2023/10/16 12:27:54;;;;;;;3.22;0.80;;;;;;;11.60;88.65;102254.91;4993889;28;20209;-74
2023/10/16 12:30:20;;;;;;;1.90;0.63;;;;;;;11.62;88.58;102249.63;4994366;28;20030;-74
2023/10/16 12:32:45;;;;;;;4.45;0.55;;;;;;;11.62;87.94;102253.09;4998565;28;20042;-74
2023/10/16 12:35:18;;;;;;;0.95;0.60;;;;;;;11.63;88.24;102246.97;4996624;28;20132;-74
2023/10/16 12:37:44;;;;;;;2.13;0.90;;;;;;;11.66;87.59;102236.41;4993238;28;20026;-74
2023/10/16 12:40:28;;;;;;;2.05;0.68;;;;;;;11.70;87.46;102235.44;4999544;28;20102;-74
2023/10/16 12:42:55;;;;;;;1.88;0.63;;;;;;;11.68;87.52;102234.59;5010154;28;20065;-74
2023/10/16 12:45:25;;;;;;;1.08;0.50;;;;;;;11.69;88.01;102232.84;5009356;28;20320;-74
2023/10/16 12:47:54;;;;;;;1.67;0.68;;;;;;;11.68;88.13;102236.38;5008230;28;20033;-74
2023/10/16 12:50:25;;;;;;;2.55;0.68;;;;;;;11.68;88.67;102236.38;5008863;28;20045;-74
2023/10/16 12:52:51;;;;;;;1.63;0.55;;;;;;;11.70;87.69;102232.81;5008566;28;20374;-74
2023/10/16 12:55:19;;;;;;;1.27;0.57;;;;;;;11.69;87.64;102238.09;5010712;28;20057;-74
2023/10/16 12:57:45;;;;;;;2.15;0.70;;;;;;;11.68;88.32;102234.59;5006368;28;20120;-74
2023/10/16 13:00:15;;;;;;;0.95;0.60;;;;;;;11.67;88.42;102232.88;5011967;28;20201;-74
2023/10/16 13:02:45;;;;;;;1.85;0.70;;;;;;;11.66;88.26;102236.41;5010228;28;20296;-74
2023/10/16 13:05:13;;;;;;;1.23;0.60;;;;;;;11.63;87.07;102236.47;5007497;28;20387;-74
2023/10/16 13:07:41;;;;;;;5.43;0.70;;;;;;;11.58;86.10;102233.09;5002192;28;20259;-74
2023/10/16 13:10:14;;;;;;;3.45;0.75;;;;;;;11.60;86.54;102231.28;5000250;28;20105;-74
2023/10/16 13:12:41;;;;;;;1.77;0.50;;;;;;;11.61;86.98;102235.66;5015701;28;20114;-74
2023/10/16 13:15:08;;;;;;;2.65;0.82;;;;;;;11.61;86.58;102230.41;5008877;28;20236;-74
2023/10/16 13:17:34;;;;;;;1.98;0.57;;;;;;;11.61;86.71;102235.66;5010753;28;20057;-74
2023/10/16 13:20:00;;;;;;;2.60;0.60;;;;;;;11.62;87.25;102239.13;5005556;28;20223;-74
2023/10/16 13:22:25;;;;;;;2.42;0.70;;;;;;;11.64;87.16;102237.31;5001892;28;20264;-74
2023/10/16 13:24:54;;;;;;;0.63;0.63;;;;;;;11.64;86.83;102235.59;5011913;28;20041;-74
2023/10/16 13:27:21;;;;;;;0.82;0.50;;;;;;;11.62;87.09;102232.09;5009985;28;20037;-74
2023/10/16 13:29:47;;;;;;;2.92;0.60;;;;;;;11.60;87.90;102223.41;4994814;28;20042;-74
2023/10/16 13:32:13;;;;;;;0.85;0.50;;;;;;;11.59;88.15;102226.06;4988632;28;20045;-74
2023/10/16 13:34:38;;;;;;;3.75;0.65;;;;;;;11.60;88.28;102226.03;5004250;28;20037;-74